Time;durP1;ratioP1;P1;durP2;ratioP2;P2;SDS_P1;SDS_P2;PMS_P1;PMS_P2;Temp;Humidity;BMP_temperature;BMP_pressure;BME280_temperature;BME280_humidity;BME280_pressure;Samples;Min_cycle;Max_cycle;Signal;HPM_P1;HPM_P2
2021/04/08 00:00:17;;;;;;;20.17;2.95;;;;;;;;;;5057689;28;20044;-72
2021/04/08 00:02:43;;;;;;;20.65;4.18;;;;;;;;;;5061298;28;20478;-72
2021/04/08 00:05:11;;;;;;;15.73;2.30;;;;;;;;;;5057535;28;20071;-72
2021/04/08 00:07:37;;;;;;;21.38;2.50;;;;;;;;;;5054152;28;20068;-72
2021/04/08 00:10:04;;;;;;;14.95;2.15;;;;;;;;;;5057763;28;20052;-72
2021/04/08 00:12:30;;;;;;;15.77;2.88;;;;;;;;;;5056633;28;20094;-72
2021/04/08 00:14:56;;;;;;;15.50;2.05;;;;;;;;;;5064348;28;20036;-72
2021/04/08 00:17:23;;;;;;;17.80;2.33;;;;;;;;;;5066948;28;20056;-72
2021/04/08 00:19:49;;;;;;;17.38;2.75;;;;;;;;;;5065067;28;20052;-72
2021/04/08 00:22:15;;;;;;;18.90;3.67;;;;;;;;;;5067629;28;20044;-72
2021/04/08 00:24:41;;;;;;;12.20;2.15;;;;;;;;;;5063240;28;20050;-72
2021/04/08 00:27:08;;;;;;;17.38;3.03;;;;;;;;;;5063303;28;20429;-72
2021/04/08 00:29:34;;;;;;;14.52;2.53;;;;;;;;;;5060580;28;20137;-72
2021/04/08 00:32:00;;;;;;;12.55;2.50;;;;;;;;;;5060578;28;20557;-72
2021/04/08 00:34:27;;;;;;;15.13;2.58;;;;;;;;;;5057025;28;20041;-72
2021/04/08 00:36:53;;;;;;;9.63;1.58;;;;;;;;;;5058605;28;20033;-72
2021/04/08 00:39:19;;;;;;;14.95;2.95;;;;;;;;;;5055343;28;20064;-72
2021/04/08 00:41:45;;;;;;;13.57;2.72;;;;;;;;;;5046154;28;20048;-72
2021/04/08 00:44:12;;;;;;;16.95;2.00;;;;;;;;;;5057811;28;20050;-72
2021/04/08 00:46:38;;;;;;;12.25;1.70;;;;;;;;;;5057363;28;20045;-72
2021/04/08 00:49:04;;;;;;;14.70;1.95;;;;;;;;;;5055669;28;20496;-72
2021/04/08 00:51:30;;;;;;;9.80;1.65;;;;;;;;;;5063759;28;20364;-72
2021/04/08 00:53:57;;;;;;;7.88;1.50;;;;;;;;;;5058531;28;20096;-72
2021/04/08 00:56:23;;;;;;;6.22;1.48;;;;;;;;;;5055437;28;20430;-72
2021/04/08 00:58:50;;;;;;;10.15;1.30;;;;;;;;;;5059997;28;20045;-72
2021/04/08 01:01:17;;;;;;;10.43;1.48;;;;;;;;;;5059486;28;20051;-72
2021/04/08 01:03:46;;;;;;;12.48;3.05;;;;;;;;;;5054248;28;20121;-72
2021/04/08 01:06:12;;;;;;;5.53;1.17;;;;;;;;;;5058919;28;20407;-72
2021/04/08 01:08:38;;;;;;;6.05;1.02;;;;;;;;;;5053295;28;20958;-72
2021/04/08 01:11:05;;;;;;;9.85;1.20;;;;;;;;;;5055117;28;20093;-72
2021/04/08 01:13:33;;;;;;;9.35;1.40;;;;;;;;;;5059865;28;20037;-72
2021/04/08 01:16:03;;;;;;;9.38;0.90;;;;;;;;;;5055736;28;20044;-72
2021/04/08 01:18:30;;;;;;;6.03;1.33;;;;;;;;;;5054619;28;20044;-72
2021/04/08 01:21:07;;;;;;;9.98;1.27;;;;;;;;;;5057942;28;20037;-72
2021/04/08 01:23:52;;;;;;;13.27;2.30;;;;;;;;;;5054344;28;20041;-72
2021/04/08 01:26:25;;;;;;;6.03;1.10;;;;;;;;;;5056525;28;20044;-72
2021/04/08 01:29:02;;;;;;;9.57;1.80;;;;;;;;;;5059440;28;20143;-72
2021/04/08 01:31:28;;;;;;;13.90;1.40;;;;;;;;;;5059680;28;20040;-72
2021/04/08 01:33:58;;;;;;;11.02;1.40;;;;;;;;;;5062370;28;20048;-72
2021/04/08 01:36:26;;;;;;;14.95;1.63;;;;;;;;;;5061783;28;20131;-72
2021/04/08 01:38:53;;;;;;;17.48;2.63;;;;;;;;;;5059220;28;20047;-72
2021/04/08 01:41:20;;;;;;;11.25;2.42;;;;;;;;;;5060063;28;20040;-72
2021/04/08 01:43:47;;;;;;;17.10;2.20;;;;;;;;;;5055940;28;20187;-72
2021/04/08 01:46:15;;;;;;;12.75;2.90;;;;;;;;;;5057378;28;20041;-72
2021/04/08 01:48:43;;;;;;;9.65;1.77;;;;;;;;;;5056880;28;20755;-72
2021/04/08 01:51:10;;;;;;;16.67;2.25;;;;;;;;;;5059878;28;20044;-72
2021/04/08 01:53:40;;;;;;;18.45;2.65;;;;;;;;;;5061296;28;20345;-72
2021/04/08 01:56:06;;;;;;;20.60;2.50;;;;;;;;;;5064282;28;20049;-72
2021/04/08 01:58:33;;;;;;;19.60;2.13;;;;;;;;;;5061564;28;20543;-72
2021/04/08 02:00:59;;;;;;;14.90;2.35;;;;;;;;;;5066044;28;20067;-72
2021/04/08 02:03:27;;;;;;;20.50;3.55;;;;;;;;;;5060512;28;20051;-72
2021/04/08 02:05:54;;;;;;;11.57;2.90;;;;;;;;;;5061664;28;20166;-72
2021/04/08 02:08:20;;;;;;;12.90;1.83;;;;;;;;;;5062235;28;20523;-72
2021/04/08 02:10:47;;;;;;;17.70;2.63;;;;;;;;;;5067125;28;20426;-72
2021/04/08 02:13:14;;;;;;;12.32;2.72;;;;;;;;;;5066006;28;20056;-72
2021/04/08 02:15:42;;;;;;;19.50;2.15;;;;;;;;;;5069781;28;20459;-72
2021/04/08 02:18:08;;;;;;;17.45;2.03;;;;;;;;;;5068627;28;20042;-72
2021/04/08 02:20:35;;;;;;;14.82;2.58;;;;;;;;;;5063253;28;20095;-72
2021/04/08 02:23:02;;;;;;;14.75;2.15;;;;;;;;;;5064833;28;20135;-72
2021/04/08 02:25:31;;;;;;;15.27;2.42;;;;;;;;;;5062494;28;20083;-72
2021/04/08 02:27:59;;;;;;;20.40;2.20;;;;;;;;;;5061956;28;20072;-72
2021/04/08 02:30:26;;;;;;;12.27;2.70;;;;;;;;;;5059937;28;20504;-72
2021/04/08 02:32:53;;;;;;;21.42;2.40;;;;;;;;;;5048546;28;20405;-72
2021/04/08 02:35:20;;;;;;;13.35;1.80;;;;;;;;;;5037897;28;20044;-72
2021/04/08 02:37:46;;;;;;;16.33;2.30;;;;;;;;;;5041482;28;20037;-72
2021/04/08 02:40:15;;;;;;;14.77;2.25;;;;;;;;;;5044942;28;20049;-72
2021/04/08 02:42:41;;;;;;;18.15;2.00;;;;;;;;;;5037108;28;20076;-72
2021/04/08 02:45:09;;;;;;;10.32;1.92;;;;;;;;;;5041616;28;20049;-72
2021/04/08 02:47:35;;;;;;;20.77;1.75;;;;;;;;;;5038524;28;20321;-72
2021/04/08 02:50:01;;;;;;;13.93;1.98;;;;;;;;;;5020738;28;20067;-72
2021/04/08 02:52:33;;;;;;;13.68;2.00;;;;;;;;;;5043889;28;20037;-72
2021/04/08 02:55:03;;;;;;;11.07;2.03;;;;;;;;;;5048415;28;20103;-72
2021/04/08 02:57:33;;;;;;;10.05;1.60;;;;;;;;;;5048012;28;20041;-72
2021/04/08 03:00:06;;;;;;;14.90;1.73;;;;;;;;;;5029490;28;20103;-72
2021/04/08 03:02:33;;;;;;;11.95;2.20;;;;;;;;;;5031059;28;20043;-72
2021/04/08 03:05:00;;;;;;;14.93;2.03;;;;;;;;;;5048390;28;20029;-72
2021/04/08 03:07:28;;;;;;;16.55;1.83;;;;;;;;;;5048449;28;20051;-72
2021/04/08 03:09:55;;;;;;;13.40;2.80;;;;;;;;;;5048502;28;20392;-72
2021/04/08 03:12:22;;;;;;;8.00;1.83;;;;;;;;;;5048618;28;20052;-72
2021/04/08 03:14:50;;;;;;;14.95;2.45;;;;;;;;;;5047183;28;20080;-72
2021/04/08 03:17:18;;;;;;;13.93;1.60;;;;;;;;;;5047167;28;20433;-72
2021/04/08 03:19:45;;;;;;;11.20;1.88;;;;;;;;;;5048081;28;21665;-72
2021/04/08 03:22:13;;;;;;;9.88;2.85;;;;;;;;;;5047895;28;20447;-72
2021/04/08 03:24:41;;;;;;;8.70;1.30;;;;;;;;;;5045572;28;20067;-72
2021/04/08 03:27:08;;;;;;;9.98;2.00;;;;;;;;;;5047441;28;20053;-72
2021/04/08 03:29:36;;;;;;;13.05;1.92;;;;;;;;;;5045924;28;20037;-72
2021/04/08 03:32:02;;;;;;;6.78;1.17;;;;;;;;;;5050372;28;20051;-72
2021/04/08 03:34:29;;;;;;;6.47;2.17;;;;;;;;;;5065999;28;20453;-72
2021/04/08 03:36:55;;;;;;;18.60;3.08;;;;;;;;;;5067347;28;20056;-72
2021/04/08 03:39:21;;;;;;;9.85;1.83;;;;;;;;;;5065764;28;20052;-72
2021/04/08 03:41:47;;;;;;;6.18;1.27;;;;;;;;;;5069118;28;20108;-72
2021/04/08 03:44:15;;;;;;;15.05;1.73;;;;;;;;;;5068869;28;20044;-72
2021/04/08 03:46:42;;;;;;;8.98;1.30;;;;;;;;;;5068658;28;20094;-72
2021/04/08 03:49:09;;;;;;;12.70;1.40;;;;;;;;;;5061383;28;20219;-72
2021/04/08 03:51:37;;;;;;;13.07;1.40;;;;;;;;;;5065569;28;20040;-72
2021/04/08 03:54:05;;;;;;;8.85;2.03;;;;;;;;;;5064470;28;20109;-72
2021/04/08 03:56:31;;;;;;;11.57;1.52;;;;;;;;;;5061603;28;20043;-72
2021/04/08 03:58:58;;;;;;;7.63;1.30;;;;;;;;;;5066895;28;20431;-72
2021/04/08 04:01:24;;;;;;;7.88;1.20;;;;;;;;;;5066466;28;20079;-72
2021/04/08 04:03:51;;;;;;;7.57;1.70;;;;;;;;;;5065876;28;20471;-72
2021/04/08 04:06:19;;;;;;;13.90;1.58;;;;;;;;;;5067141;28;20109;-72
2021/04/08 04:08:45;;;;;;;10.68;1.52;;;;;;;;;;5063945;28;20049;-72
2021/04/08 04:11:12;;;;;;;7.05;1.48;;;;;;;;;;5044662;28;20502;-72
2021/04/08 04:13:40;;;;;;;13.88;1.50;;;;;;;;;;5066583;28;20067;-72
2021/04/08 04:16:06;;;;;;;5.30;1.88;;;;;;;;;;5059011;28;20477;-73
2021/04/08 04:18:33;;;;;;;11.75;1.50;;;;;;;;;;5066885;28;20385;-72
2021/04/08 04:21:00;;;;;;;12.45;2.35;;;;;;;;;;5065635;28;20167;-72
2021/04/08 04:23:26;;;;;;;10.88;1.80;;;;;;;;;;5061598;28;20036;-72
2021/04/08 04:25:53;;;;;;;7.95;1.30;;;;;;;;;;5067793;28;20046;-72
2021/04/08 04:28:19;;;;;;;9.10;1.33;;;;;;;;;;5059207;28;20055;-72
2021/04/08 04:30:45;;;;;;;10.25;2.70;;;;;;;;;;5067862;28;20079;-72
2021/04/08 04:33:11;;;;;;;16.15;1.88;;;;;;;;;;5066090;28;20061;-72
2021/04/08 04:35:38;;;;;;;16.33;2.55;;;;;;;;;;5068437;28;20419;-72
2021/04/08 04:38:04;;;;;;;16.73;2.58;;;;;;;;;;5066072;28;20129;-72
2021/04/08 04:40:30;;;;;;;7.03;1.65;;;;;;;;;;5066261;28;20043;-72
2021/04/08 04:42:56;;;;;;;13.82;3.08;;;;;;;;;;5066809;28;20044;-72
2021/04/08 04:45:23;;;;;;;11.02;1.58;;;;;;;;;;5066671;28;20487;-72
2021/04/08 04:47:49;;;;;;;10.52;1.63;;;;;;;;;;5059599;28;20440;-72
2021/04/08 04:50:15;;;;;;;10.52;1.52;;;;;;;;;;5067969;28;20102;-71
2021/04/08 04:52:42;;;;;;;4.82;1.25;;;;;;;;;;5067945;28;20052;-73
2021/04/08 04:55:09;;;;;;;10.30;1.58;;;;;;;;;;5062880;28;20036;-73
2021/04/08 04:57:35;;;;;;;4.88;1.10;;;;;;;;;;5060255;28;20052;-74
2021/04/08 05:00:02;;;;;;;8.43;1.63;;;;;;;;;;5062217;28;20079;-71
2021/04/08 05:02:28;;;;;;;7.90;1.48;;;;;;;;;;5060056;28;20033;-72
2021/04/08 05:04:55;;;;;;;5.60;0.95;;;;;;;;;;5079242;28;20041;-72
2021/04/08 05:07:21;;;;;;;8.60;1.17;;;;;;;;;;5088170;28;20491;-72
2021/04/08 05:09:48;;;;;;;6.53;1.30;;;;;;;;;;5069510;28;20569;-71
2021/04/08 05:12:14;;;;;;;8.82;1.35;;;;;;;;;;5057374;28;20087;-72
2021/04/08 05:14:40;;;;;;;6.03;1.40;;;;;;;;;;5065412;28;20086;-72
2021/04/08 05:17:06;;;;;;;7.15;1.33;;;;;;;;;;5057713;28;20498;-72
2021/04/08 05:19:33;;;;;;;6.18;1.50;;;;;;;;;;5065665;28;20124;-72
2021/04/08 05:21:59;;;;;;;6.28;1.73;;;;;;;;;;5060795;28;20028;-72
2021/04/08 05:24:25;;;;;;;9.90;2.10;;;;;;;;;;5060198;28;20068;-72
2021/04/08 05:26:51;;;;;;;10.07;1.60;;;;;;;;;;5060305;28;20033;-72
2021/04/08 05:29:18;;;;;;;13.77;2.75;;;;;;;;;;5067648;28;20052;-73
2021/04/08 05:31:44;;;;;;;11.93;2.08;;;;;;;;;;5065106;28;20124;-73
2021/04/08 05:34:10;;;;;;;12.60;1.58;;;;;;;;;;5068644;28;20428;-74
2021/04/08 05:36:36;;;;;;;10.52;1.80;;;;;;;;;;5068405;28;20041;-76
2021/04/08 05:39:04;;;;;;;11.98;1.83;;;;;;;;;;5065830;28;20131;-72
2021/04/08 05:41:30;;;;;;;11.88;1.73;;;;;;;;;;5068164;28;21683;-83
2021/04/08 05:43:57;;;;;;;7.93;2.10;;;;;;;;;;5061825;28;20044;-84
2021/04/08 05:46:23;;;;;;;8.55;1.65;;;;;;;;;;5071461;28;20098;-74
2021/04/08 05:48:49;;;;;;;15.00;2.00;;;;;;;;;;5068683;28;20044;-73
2021/04/08 05:51:16;;;;;;;6.65;1.85;;;;;;;;;;5072275;28;20036;-74
2021/04/08 05:53:42;;;;;;;11.02;2.10;;;;;;;;;;5072837;28;20048;-73
2021/04/08 05:56:09;;;;;;;9.40;2.00;;;;;;;;;;5073191;28;20036;-73
2021/04/08 05:58:35;;;;;;;12.45;3.35;;;;;;;;;;5069699;28;20119;-75
2021/04/08 06:01:01;;;;;;;13.55;2.00;;;;;;;;;;5072991;28;20124;-72
2021/04/08 06:03:27;;;;;;;13.23;2.10;;;;;;;;;;5072748;28;20123;-73
2021/04/08 06:05:54;;;;;;;9.05;2.42;;;;;;;;;;5071891;28;20106;-72
2021/04/08 06:08:21;;;;;;;10.48;2.55;;;;;;;;;;5072506;28;20119;-74
2021/04/08 06:10:47;;;;;;;12.30;2.28;;;;;;;;;;5072755;28;20048;-73
2021/04/08 06:13:13;;;;;;;15.75;1.55;;;;;;;;;;5070004;28;20045;-73
2021/04/08 06:15:40;;;;;;;10.05;1.98;;;;;;;;;;5075518;28;20060;-73
2021/04/08 06:18:07;;;;;;;8.43;1.52;;;;;;;;;;5072601;28;20044;-73
2021/04/08 06:20:33;;;;;;;11.90;2.38;;;;;;;;;;5071816;28;20040;-73
2021/04/08 06:22:59;;;;;;;7.70;1.40;;;;;;;;;;5067457;28;20388;-72
2021/04/08 06:25:26;;;;;;;9.80;1.67;;;;;;;;;;5069649;28;20045;-73
2021/04/08 06:27:52;;;;;;;13.82;2.17;;;;;;;;;;5070031;28;20032;-77
2021/04/08 06:30:19;;;;;;;11.73;2.20;;;;;;;;;;5072709;28;20056;-75
2021/04/08 06:32:45;;;;;;;9.35;1.75;;;;;;;;;;5071854;28;20071;-77
2021/04/08 06:35:11;;;;;;;18.17;2.55;;;;;;;;;;5072701;28;20044;-80
2021/04/08 06:37:38;;;;;;;12.63;2.10;;;;;;;;;;5072649;28;20044;-80
2021/04/08 06:40:06;;;;;;;14.27;2.58;;;;;;;;;;5071974;28;20486;-80
2021/04/08 06:42:34;;;;;;;12.35;2.17;;;;;;;;;;5074882;28;20037;-78
2021/04/08 06:45:01;;;;;;;12.05;1.90;;;;;;;;;;5072486;28;20495;-72
2021/04/08 06:47:32;;;;;;;13.93;2.28;;;;;;;;;;5071455;28;20076;-73
2021/04/08 06:50:03;;;;;;;11.55;1.88;;;;;;;;;;5072105;28;20064;-72
2021/04/08 06:52:29;;;;;;;9.63;2.50;;;;;;;;;;5072276;28;20051;-71
2021/04/08 06:54:56;;;;;;;10.30;1.85;;;;;;;;;;5071015;28;20045;-71
2021/04/08 06:57:22;;;;;;;11.60;2.50;;;;;;;;;;5066160;28;20110;-71
2021/04/08 06:59:48;;;;;;;7.93;2.15;;;;;;;;;;5071925;28;20092;-72
2021/04/08 07:02:17;;;;;;;9.07;2.83;;;;;;;;;;5067271;28;20064;-71
2021/04/08 07:04:43;;;;;;;10.60;2.53;;;;;;;;;;5071862;28;20404;-72
2021/04/08 07:07:09;;;;;;;10.73;2.20;;;;;;;;;;5071934;28;20119;-72
2021/04/08 07:09:36;;;;;;;9.85;2.22;;;;;;;;;;5071650;28;20048;-72
2021/04/08 07:12:04;;;;;;;8.52;1.73;;;;;;;;;;5068542;28;20143;-71
2021/04/08 07:14:30;;;;;;;10.02;2.33;;;;;;;;;;5071505;28;20074;-72
2021/04/08 07:16:56;;;;;;;19.58;2.20;;;;;;;;;;5071116;28;20055;-72
2021/04/08 07:19:22;;;;;;;7.80;1.77;;;;;;;;;;5071609;28;20124;-72
2021/04/08 07:21:49;;;;;;;9.00;2.08;;;;;;;;;;5071561;28;20124;-72
2021/04/08 07:24:16;;;;;;;9.15;2.13;;;;;;;;;;5071099;28;20032;-73
2021/04/08 07:26:54;;;;;;;12.98;2.08;;;;;;;;;;5070345;28;20412;-74
2021/04/08 07:29:21;;;;;;;10.35;1.63;;;;;;;;;;5070525;28;20068;-72
2021/04/08 07:31:48;;;;;;;6.60;1.50;;;;;;;;;;5071040;28;20040;-73
2021/04/08 07:34:32;;;;;;;8.57;1.50;;;;;;;;;;5071227;28;20127;-72
2021/04/08 07:36:58;;;;;;;32.75;3.95;;;;;;;;;;5072760;28;20067;-72
2021/04/08 07:39:25;;;;;;;7.63;1.60;;;;;;;;;;5071065;28;20340;-72
2021/04/08 07:41:59;;;;;;;16.73;2.55;;;;;;;;;;5071220;28;20059;-73
2021/04/08 07:44:26;;;;;;;5.93;1.60;;;;;;;;;;5070232;28;20044;-73
2021/04/08 07:46:53;;;;;;;10.13;1.90;;;;;;;;;;5070741;28;20081;-72
2021/04/08 07:49:31;;;;;;;9.30;1.60;;;;;;;;;;5071186;28;20044;-73
2021/04/08 07:51:58;;;;;;;11.02;2.00;;;;;;;;;;5068151;28;20060;-72
2021/04/08 07:54:24;;;;;;;6.60;2.08;;;;;;;;;;5070684;28;20047;-72
2021/04/08 07:56:51;;;;;;;10.90;1.95;;;;;;;;;;5073758;28;20048;-72
2021/04/08 07:59:19;;;;;;;8.05;1.75;;;;;;;;;;5070148;28;20140;-72
2021/04/08 08:01:46;;;;;;;4.70;1.65;;;;;;;;;;5070756;28;20033;-72
2021/04/08 08:04:24;;;;;;;9.05;1.75;;;;;;;;;;5070104;28;20064;-72
2021/04/08 08:06:51;;;;;;;6.70;1.85;;;;;;;;;;5063590;28;20442;-73
2021/04/08 08:09:19;;;;;;;9.63;1.63;;;;;;;;;;5070221;28;20184;-72
2021/04/08 08:11:48;;;;;;;14.23;2.22;;;;;;;;;;5070231;28;20151;-72
2021/04/08 08:14:15;;;;;;;8.65;1.48;;;;;;;;;;5071109;28;20449;-72
2021/04/08 08:16:41;;;;;;;7.20;1.58;;;;;;;;;;5071512;28;20044;-72
2021/04/08 08:19:07;;;;;;;9.43;1.55;;;;;;;;;;5070253;28;20048;-72
2021/04/08 08:21:37;;;;;;;10.15;2.00;;;;;;;;;;5069181;28;20048;-72
2021/04/08 08:24:08;;;;;;;11.48;1.83;;;;;;;;;;5069666;28;20041;-72
2021/04/08 08:26:36;;;;;;;10.65;3.20;;;;;;;;;;5070456;28;20036;-72
2021/04/08 08:29:15;;;;;;;10.35;3.13;;;;;;;;;;5071249;28;20127;-72
2021/04/08 08:31:57;;;;;;;12.02;1.75;;;;;;;;;;5056860;28;20032;-73
2021/04/08 08:34:34;;;;;;;9.30;1.95;;;;;;;;;;5064688;28;20368;-72
2021/04/08 08:37:02;;;;;;;8.10;1.52;;;;;;;;;;5071166;28;20068;-72
2021/04/08 08:39:30;;;;;;;7.72;1.42;;;;;;;;;;5070007;28;20148;-72
2021/04/08 08:41:57;;;;;;;11.02;2.28;;;;;;;;;;5065525;28;20083;-72
2021/04/08 08:44:24;;;;;;;6.93;1.95;;;;;;;;;;5065034;28;20044;-73
2021/04/08 08:46:59;;;;;;;10.65;2.08;;;;;;;;;;5069714;28;20161;-72
2021/04/08 08:49:28;;;;;;;8.90;2.20;;;;;;;;;;5069232;28;20548;-73
2021/04/08 08:51:58;;;;;;;6.32;1.92;;;;;;;;;;5055087;28;20039;-72
2021/04/08 08:54:24;;;;;;;14.02;2.50;;;;;;;;;;5062706;28;20162;-72
2021/04/08 08:56:51;;;;;;;7.80;2.00;;;;;;;;;;5068898;28;20495;-72
2021/04/08 08:59:17;;;;;;;9.93;1.98;;;;;;;;;;5070469;28;20473;-72
2021/04/08 09:01:44;;;;;;;9.00;3.33;;;;;;;;;;5069952;28;20040;-72
2021/04/08 09:04:10;;;;;;;6.47;1.83;;;;;;;;;;5061906;28;20055;-72
2021/04/08 09:06:38;;;;;;;7.82;2.00;;;;;;;;;;5070293;28;20045;-72
2021/04/08 09:09:09;;;;;;;9.20;2.03;;;;;;;;;;5069821;28;20087;-72
2021/04/08 09:11:36;;;;;;;5.97;2.15;;;;;;;;;;5070187;28;20442;-72
2021/04/08 09:14:03;;;;;;;8.77;1.88;;;;;;;;;;5059068;28;20131;-72
2021/04/08 09:16:30;;;;;;;8.25;2.03;;;;;;;;;;5069537;28;20438;-73
2021/04/08 09:18:58;;;;;;;9.02;2.15;;;;;;;;;;5070151;28;20415;-73
2021/04/08 09:21:25;;;;;;;7.03;2.13;;;;;;;;;;5068880;28;20398;-72
2021/04/08 09:24:10;;;;;;;6.15;1.92;;;;;;;;;;5068308;28;20049;-73
2021/04/08 09:26:38;;;;;;;5.32;1.73;;;;;;;;;;5062254;28;20036;-74
2021/04/08 09:29:04;;;;;;;7.85;2.05;;;;;;;;;;5073255;28;20533;-73
2021/04/08 09:31:31;;;;;;;8.45;1.90;;;;;;;;;;5074415;28;20456;-73
2021/04/08 09:33:59;;;;;;;7.20;2.10;;;;;;;;;;5072082;28;20052;-74
2021/04/08 09:36:26;;;;;;;6.53;2.08;;;;;;;;;;5073280;28;20040;-73
2021/04/08 09:38:59;;;;;;;7.97;1.90;;;;;;;;;;5074497;28;20033;-73
2021/04/08 09:41:43;;;;;;;6.03;1.80;;;;;;;;;;5074139;28;20131;-73
2021/04/08 09:44:11;;;;;;;6.57;2.28;;;;;;;;;;5068682;28;20098;-73
2021/04/08 09:46:40;;;;;;;6.85;2.28;;;;;;;;;;5072518;28;20040;-73
2021/04/08 09:49:06;;;;;;;8.77;2.40;;;;;;;;;;5073890;28;20123;-73
2021/04/08 09:51:36;;;;;;;13.02;2.35;;;;;;;;;;5072845;28;20052;-73
2021/04/08 09:54:04;;;;;;;7.43;2.55;;;;;;;;;;5073470;28;20468;-74
2021/04/08 09:56:41;;;;;;;7.82;2.42;;;;;;;;;;5069717;28;20055;-73
2021/04/08 09:59:07;;;;;;;6.88;2.72;;;;;;;;;;5073799;28;20055;-73
2021/04/08 10:01:33;;;;;;;6.35;2.85;;;;;;;;;;5073384;28;20474;-73
2021/04/08 10:04:19;;;;;;;9.18;2.70;;;;;;;;;;5071562;28;20391;-74
2021/04/08 10:06:46;;;;;;;6.25;2.53;;;;;;;;;;5070032;28;20040;-74
2021/04/08 10:09:14;;;;;;;4.50;2.50;;;;;;;;;;5073552;28;20089;-74
2021/04/08 10:11:41;;;;;;;8.32;2.63;;;;;;;;;;5072998;28;20064;-74
2021/04/08 10:14:16;;;;;;;10.65;2.85;;;;;;;;;;5073418;28;20100;-74
2021/04/08 10:16:42;;;;;;;7.75;3.35;;;;;;;;;;5067250;28;20101;-74
2021/04/08 10:19:13;;;;;;;9.70;3.45;;;;;;;;;;5072591;28;20075;-74
2021/04/08 10:21:40;;;;;;;7.57;3.97;;;;;;;;;;5073373;28;20044;-74
2021/04/08 10:24:25;;;;;;;6.13;2.95;;;;;;;;;;5073107;28;20041;-74
2021/04/08 10:27:14;;;;;;;13.23;3.75;;;;;;;;;;5062820;28;20047;-74
2021/04/08 10:30:00;;;;;;;9.45;3.67;;;;;;;;;;5071910;28;20044;-72
2021/04/08 10:32:30;;;;;;;9.63;3.50;;;;;;;;;;5070852;28;20396;-74
2021/04/08 10:34:57;;;;;;;7.65;3.33;;;;;;;;;;5057625;28;20460;-74
2021/04/08 10:37:23;;;;;;;7.45;3.70;;;;;;;;;;5067744;28;20040;-74
2021/04/08 10:39:49;;;;;;;8.40;4.68;;;;;;;;;;5072265;28;20059;-74
2021/04/08 10:42:16;;;;;;;6.25;3.60;;;;;;;;;;5071634;28;20032;-74
2021/04/08 10:44:45;;;;;;;9.13;3.95;;;;;;;;;;5072874;28;20075;-75
2021/04/08 10:47:13;;;;;;;9.73;4.50;;;;;;;;;;5068454;28;20119;-75
2021/04/08 10:49:43;;;;;;;13.27;4.85;;;;;;;;;;5072560;28;20567;-75
2021/04/08 10:52:12;;;;;;;8.65;3.65;;;;;;;;;;5072905;28;20047;-75
2021/04/08 10:54:40;;;;;;;11.52;3.63;;;;;;;;;;5072027;28;20044;-75
2021/04/08 10:57:07;;;;;;;11.07;3.85;;;;;;;;;;5071988;28;20527;-75
2021/04/08 10:59:34;;;;;;;7.43;4.15;;;;;;;;;;5072687;28;20048;-74
2021/04/08 11:02:03;;;;;;;7.95;3.80;;;;;;;;;;5070342;28;20040;-75
2021/04/08 11:04:36;;;;;;;9.82;3.78;;;;;;;;;;5071379;28;20052;-75
2021/04/08 11:07:02;;;;;;;12.23;4.40;;;;;;;;;;5068163;28;20036;-75
2021/04/08 11:09:29;;;;;;;12.32;4.78;;;;;;;;;;5063739;28;20047;-76
2021/04/08 11:11:56;;;;;;;9.25;4.28;;;;;;;;;;5071104;28;20040;-75
2021/04/08 11:14:24;;;;;;;9.82;4.38;;;;;;;;;;5071381;28;20484;-75
2021/04/08 11:16:52;;;;;;;10.35;4.85;;;;;;;;;;5072627;28;20044;-75
2021/04/08 11:19:19;;;;;;;9.73;5.45;;;;;;;;;;5070795;28;20100;-76
2021/04/08 11:21:45;;;;;;;9.25;5.63;;;;;;;;;;5072024;28;20444;-81
2021/04/08 11:24:13;;;;;;;8.82;5.10;;;;;;;;;;5072368;28;20068;-76
2021/04/08 11:26:47;;;;;;;9.52;5.90;;;;;;;;;;5072181;28;20472;-76
2021/04/08 11:29:19;;;;;;;11.98;5.80;;;;;;;;;;5067687;28;20349;-74
2021/04/08 11:31:57;;;;;;;14.38;5.82;;;;;;;;;;5072118;28;20044;-74
2021/04/08 11:34:23;;;;;;;10.77;5.28;;;;;;;;;;5061098;28;20476;-73
2021/04/08 11:36:55;;;;;;;10.07;5.22;;;;;;;;;;5069960;28;20070;-74
2021/04/08 11:39:21;;;;;;;10.20;5.13;;;;;;;;;;5071656;28;20047;-74
2021/04/08 11:41:48;;;;;;;9.68;5.07;;;;;;;;;;5071668;28;20067;-74
2021/04/08 11:44:24;;;;;;;11.80;4.47;;;;;;;;;;5066250;28;20053;-74
2021/04/08 11:46:50;;;;;;;8.60;4.53;;;;;;;;;;5057533;28;20036;-74
2021/04/08 11:49:18;;;;;;;7.25;4.63;;;;;;;;;;5069698;28;20075;-75
2021/04/08 11:51:45;;;;;;;8.27;5.50;;;;;;;;;;5069725;28;20134;-74
2021/04/08 11:54:13;;;;;;;7.15;4.25;;;;;;;;;;5067556;28;20079;-74
2021/04/08 11:56:40;;;;;;;5.85;3.80;;;;;;;;;;5061421;28;20041;-73
2021/04/08 11:59:08;;;;;;;8.70;3.65;;;;;;;;;;5058332;28;20104;-74
2021/04/08 12:01:37;;;;;;;8.05;4.30;;;;;;;;;;5064800;28;20553;-74
2021/04/08 12:04:11;;;;;;;6.93;2.92;;;;;;;;;;5062517;28;20594;-74
2021/04/08 12:06:42;;;;;;;5.43;2.13;;;;;;;;;;5068109;28;20850;-74
2021/04/08 12:09:08;;;;;;;5.70;2.40;;;;;;;;;;5069432;28;20068;-75
2021/04/08 12:11:51;;;;;;;5.97;2.30;;;;;;;;;;5072293;28;20491;-74
2021/04/08 12:14:18;;;;;;;9.23;2.97;;;;;;;;;;5066250;28;20210;-74
2021/04/08 12:17:00;;;;;;;7.28;2.70;;;;;;;;;;5069176;28;20079;-74
2021/04/08 12:19:28;;;;;;;6.30;3.33;;;;;;;;;;5065566;28;20117;-74
2021/04/08 12:21:58;;;;;;;8.30;3.20;;;;;;;;;;5066815;28;20484;-74
2021/04/08 12:24:25;;;;;;;6.60;4.10;;;;;;;;;;5065765;28;20049;-74
2021/04/08 12:26:52;;;;;;;8.15;4.03;;;;;;;;;;5068827;28;20071;-74
2021/04/08 12:29:20;;;;;;;6.75;4.32;;;;;;;;;;5064726;28;20055;-74
2021/04/08 12:31:48;;;;;;;10.30;5.55;;;;;;;;;;5067618;28;20052;-74
2021/04/08 12:34:14;;;;;;;8.73;4.20;;;;;;;;;;5064351;28;20451;-74
2021/04/08 12:36:41;;;;;;;9.55;4.18;;;;;;;;;;5068841;28;20075;-75
2021/04/08 12:39:08;;;;;;;8.75;3.55;;;;;;;;;;5067963;28;20064;-75
2021/04/08 12:41:35;;;;;;;10.23;4.90;;;;;;;;;;5070243;28;20040;-75
2021/04/08 12:44:01;;;;;;;6.43;3.90;;;;;;;;;;5058710;28;20041;-75
2021/04/08 12:46:28;;;;;;;7.25;2.90;;;;;;;;;;5065929;28;20140;-74
2021/04/08 12:48:55;;;;;;;6.78;2.88;;;;;;;;;;5070189;28;20420;-74
2021/04/08 12:51:21;;;;;;;5.95;1.77;;;;;;;;;;5069942;28;20052;-74
2021/04/08 12:53:48;;;;;;;5.05;1.77;;;;;;;;;;5064052;28;20064;-74
2021/04/08 12:56:15;;;;;;;6.90;2.78;;;;;;;;;;5065901;28;20040;-82
2021/04/08 12:58:41;;;;;;;8.07;2.75;;;;;;;;;;5056100;28;20438;-74
2021/04/08 13:01:08;;;;;;;5.38;2.28;;;;;;;;;;5062062;28;20064;-75
2021/04/08 13:03:34;;;;;;;5.90;3.00;;;;;;;;;;5068525;28;20051;-74
2021/04/08 13:06:00;;;;;;;5.18;3.10;;;;;;;;;;5070250;28;20386;-74
2021/04/08 13:08:27;;;;;;;8.93;2.83;;;;;;;;;;5069124;28;20513;-74
2021/04/08 13:10:53;;;;;;;8.02;3.15;;;;;;;;;;5069944;28;20048;-74
2021/04/08 13:13:19;;;;;;;10.57;3.22;;;;;;;;;;5070168;28;20037;-74
2021/04/08 13:15:46;;;;;;;7.03;3.35;;;;;;;;;;5056329;28;20103;-74
2021/04/08 13:18:13;;;;;;;9.00;3.42;;;;;;;;;;5067932;28;20060;-74
2021/04/08 13:20:40;;;;;;;5.45;2.53;;;;;;;;;;5061566;28;20087;-74
2021/04/08 13:23:06;;;;;;;8.85;3.40;;;;;;;;;;5067714;28;20093;-75
2021/04/08 13:25:33;;;;;;;7.85;2.85;;;;;;;;;;5058845;28;20069;-73
2021/04/08 13:28:00;;;;;;;5.47;2.20;;;;;;;;;;5065512;28;20059;-74
2021/04/08 13:30:27;;;;;;;5.38;2.67;;;;;;;;;;5065651;28;20116;-74
2021/04/08 13:32:53;;;;;;;6.63;2.20;;;;;;;;;;5063471;28;20129;-74
2021/04/08 13:35:21;;;;;;;7.22;2.40;;;;;;;;;;5066137;28;20049;-75
2021/04/08 13:37:48;;;;;;;9.20;1.92;;;;;;;;;;5072663;28;20372;-75
2021/04/08 13:40:15;;;;;;;8.93;1.85;;;;;;;;;;5055089;28;20160;-75
2021/04/08 13:42:41;;;;;;;5.05;1.73;;;;;;;;;;5062634;28;20070;-75
2021/04/08 13:45:08;;;;;;;6.88;1.30;;;;;;;;;;5064663;28;20562;-75
2021/04/08 13:47:35;;;;;;;7.18;1.30;;;;;;;;;;5066074;28;20044;-75
2021/04/08 13:50:01;;;;;;;6.78;1.77;;;;;;;;;;5064546;28;20481;-75
2021/04/08 13:52:28;;;;;;;7.53;1.77;;;;;;;;;;5066330;28;20052;-74
2021/04/08 13:54:56;;;;;;;3.70;1.55;;;;;;;;;;5061221;28;20055;-75
2021/04/08 13:57:22;;;;;;;5.97;1.70;;;;;;;;;;5058100;28;20040;-75
2021/04/08 13:59:49;;;;;;;5.22;1.55;;;;;;;;;;5067223;28;20032;-75
2021/04/08 14:02:15;;;;;;;7.40;2.13;;;;;;;;;;5066576;28;20041;-75
2021/04/08 14:04:41;;;;;;;7.32;1.70;;;;;;;;;;5065519;28;20060;-75
2021/04/08 14:07:09;;;;;;;8.15;1.77;;;;;;;;;;5068246;28;20060;-75
2021/04/08 14:09:36;;;;;;;8.02;2.30;;;;;;;;;;5069944;28;20040;-75
2021/04/08 14:12:02;;;;;;;4.65;2.00;;;;;;;;;;5062918;28;20104;-74
2021/04/08 14:14:28;;;;;;;7.55;2.38;;;;;;;;;;5061409;28;20044;-74
2021/04/08 14:16:55;;;;;;;6.15;2.20;;;;;;;;;;5067911;28;20052;-74
2021/04/08 14:19:22;;;;;;;6.47;2.20;;;;;;;;;;5066551;28;20091;-74
2021/04/08 14:21:49;;;;;;;10.27;3.83;;;;;;;;;;5073623;28;20045;-74
2021/04/08 14:24:16;;;;;;;6.95;2.55;;;;;;;;;;5071237;28;20051;-74
2021/04/08 14:26:43;;;;;;;6.60;2.20;;;;;;;;;;5073361;28;20045;-74
2021/04/08 14:29:09;;;;;;;5.57;2.05;;;;;;;;;;5067141;28;20041;-74
2021/04/08 14:31:35;;;;;;;12.20;2.47;;;;;;;;;;5054827;28;20123;-74
2021/04/08 14:34:03;;;;;;;8.52;2.67;;;;;;;;;;5051442;28;20063;-74
2021/04/08 14:36:29;;;;;;;6.45;2.40;;;;;;;;;;5072455;28;20371;-84
2021/04/08 14:38:56;;;;;;;4.97;1.60;;;;;;;;;;5072385;28;20407;-74
2021/04/08 14:41:22;;;;;;;8.57;2.20;;;;;;;;;;5073069;28;20463;-74